Time;durP1;ratioP1;P1;durP2;ratioP2;P2;SDS_P1;SDS_P2;PMS_P1;PMS_P2;Temp;Humidity;BMP_temperature;BMP_pressure;BME280_temperature;BME280_humidity;BME280_pressure;Samples;Min_cycle;Max_cycle;Signal;HPM_P1;HPM_P2
2023/04/28 00:01:50;;;;;;;5.85;3.15;;;12.10;90.30;;;;;;10375556;28;20076;-83
2023/04/28 00:06:51;;;;;;;5.57;3.35;;;11.90;90.30;;;;;;10387768;28;20327;-83
2023/04/28 00:11:51;;;;;;;6.03;3.40;;;12.00;90.40;;;;;;10381255;28;20486;-83
2023/04/28 00:16:55;;;;;;;6.00;3.55;;;11.90;90.30;;;;;;10384704;28;20029;-83
2023/04/28 00:21:56;;;;;;;5.82;3.05;;;11.90;90.40;;;;;;10381703;28;20014;-83
2023/04/28 00:26:57;;;;;;;7.05;3.08;;;11.80;90.40;;;;;;10380773;28;20118;-83
2023/04/28 00:31:57;;;;;;;5.53;3.20;;;11.80;90.40;;;;;;10371545;28;20161;-83
2023/04/28 00:36:58;;;;;;;6.47;3.40;;;11.80;90.40;;;;;;10369045;28;20173;-83
2023/04/28 00:41:59;;;;;;;5.82;3.13;;;12.00;90.50;;;;;;10369964;28;20171;-84
2023/04/28 00:47:00;;;;;;;6.07;3.22;;;11.70;90.50;;;;;;10376473;28;20105;-84
2023/04/28 00:52:04;;;;;;;6.50;3.20;;;11.80;90.50;;;;;;10384362;28;20084;-83
2023/04/28 00:57:05;;;;;;;6.30;3.75;;;11.90;90.60;;;;;;10369402;28;20026;-83
2023/04/28 01:02:06;;;;;;;5.28;3.47;;;11.70;90.50;;;;;;10372561;28;20026;-83
2023/04/28 01:07:08;;;;;;;6.80;3.00;;;11.70;90.50;;;;;;10375671;28;20022;-83
2023/04/28 01:12:08;;;;;;;5.53;3.38;;;11.70;90.60;;;;;;10373259;28;20036;-83
2023/04/28 01:17:09;;;;;;;5.63;3.60;;;11.80;90.60;;;;;;10366378;28;20037;-83
2023/04/28 01:22:12;;;;;;;7.60;3.83;;;11.90;90.70;;;;;;10359483;28;20149;-83
2023/04/28 01:27:15;;;;;;;4.68;3.10;;;11.60;90.60;;;;;;10380460;28;20018;-83
2023/04/28 01:32:16;;;;;;;4.38;3.03;;;11.80;90.70;;;;;;10365956;28;20117;-82
2023/04/28 01:37:16;;;;;;;5.80;3.08;;;12.30;90.80;;;;;;10363156;28;20463;-82
2023/04/28 01:42:17;;;;;;;4.45;2.85;;;11.70;90.70;;;;;;10372759;28;20100;-82
2023/04/28 01:47:17;;;;;;;5.20;3.30;;;11.50;90.60;;;;;;10384299;28;20492;-82
2023/04/28 01:52:21;;;;;;;4.80;3.20;;;11.50;90.60;;;;;;10376800;28;20019;-82
2023/04/28 01:57:22;;;;;;;5.70;3.65;;;11.50;90.70;;;;;;10372008;28;20026;-82
2023/04/28 02:02:24;;;;;;;5.65;3.40;;;11.50;90.70;;;;;;10382932;28;20057;-81
2023/04/28 02:07:25;;;;;;;4.35;3.10;;;12.10;90.80;;;;;;10359475;28;20454;-82
2023/04/28 02:12:25;;;;;;;5.68;3.53;;;11.70;90.70;;;;;;10361811;28;20057;-82
2023/04/28 02:17:29;;;;;;;7.50;3.42;;;12.10;90.90;;;;;;10378089;28;20036;-82
2023/04/28 02:22:29;;;;;;;5.53;3.53;;;12.30;90.90;;;;;;10368204;28;20067;-82
2023/04/28 02:27:30;;;;;;;6.85;3.60;;;11.40;90.70;;;;;;10375741;28;20564;-82
2023/04/28 02:32:31;;;;;;;5.40;3.15;;;11.40;90.70;;;;;;10359973;28;20038;-82
2023/04/28 02:37:32;;;;;;;6.32;3.55;;;11.40;90.70;;;;;;10365835;28;20030;-82
2023/04/28 02:42:32;;;;;;;6.40;3.70;;;11.30;90.70;;;;;;10360627;28;20022;-82
2023/04/28 02:47:33;;;;;;;5.43;3.40;;;11.30;90.70;;;;;;10364929;28;20021;-82
2023/04/28 02:52:34;;;;;;;5.25;3.22;;;11.30;90.70;;;;;;10366458;28;20417;-82
2023/04/28 02:57:34;;;;;;;4.97;3.10;;;11.30;91.00;;;;;;10372215;28;20053;-82
2023/04/28 03:02:35;;;;;;;4.80;3.20;;;11.30;90.80;;;;;;10356350;28;20038;-82
2023/04/28 03:07:36;;;;;;;5.65;3.42;;;11.80;90.90;;;;;;10370357;28;20122;-82
2023/04/28 03:12:36;;;;;;;5.97;3.33;;;11.30;90.80;;;;;;10364723;28;20029;-82
2023/04/28 03:17:40;;;;;;;3.70;2.63;;;11.20;90.70;;;;;;10360612;28;20042;-82
2023/04/28 03:22:41;;;;;;;5.68;3.00;;;11.20;90.70;;;;;;10364034;28;20109;-82
2023/04/28 03:27:41;;;;;;;5.75;3.47;;;11.20;90.70;;;;;;10353178;28;20036;-82
2023/04/28 03:32:42;;;;;;;6.47;3.40;;;11.30;90.80;;;;;;10370150;28;20529;-82
2023/04/28 03:37:43;;;;;;;4.57;3.00;;;11.80;90.90;;;;;;10355262;28;20037;-82
2023/04/28 03:42:44;;;;;;;4.28;3.00;;;11.20;90.80;;;;;;10368717;28;20041;-82
2023/04/28 03:47:44;;;;;;;6.28;3.50;;;11.60;90.90;;;;;;10368038;28;20505;-82
2023/04/28 03:52:46;;;;;;;5.32;3.10;;;11.20;90.80;;;;;;10371403;28;20069;-82
2023/04/28 03:57:47;;;;;;;5.45;3.38;;;11.10;90.80;;;;;;10365620;28;20026;-82
2023/04/28 04:02:47;;;;;;;5.78;3.22;;;11.10;90.80;;;;;;10363947;28;20041;-82
2023/04/28 04:07:48;;;;;;;5.25;3.10;;;11.60;90.90;;;;;;10374437;28;20053;-82
2023/04/28 04:12:48;;;;;;;4.13;3.10;;;11.10;90.80;;;;;;10372016;28;20403;-82
2023/04/28 04:17:49;;;;;;;4.93;3.03;;;11.20;90.80;;;;;;10370264;28;20086;-82
2023/04/28 04:22:50;;;;;;;7.85;3.25;;;11.50;90.90;;;;;;10365411;28;20030;-82
2023/04/28 04:27:50;;;;;;;8.68;3.20;;;11.10;90.80;;;;;;10355207;28;20129;-82
2023/04/28 04:32:51;;;;;;;6.78;3.30;;;11.10;90.80;;;;;;10356691;28;20190;-82
2023/04/28 04:37:52;;;;;;;5.22;3.40;;;11.10;90.90;;;;;;10358276;28;20117;-82
2023/04/28 04:42:53;;;;;;;6.30;3.15;;;11.10;90.90;;;;;;10372164;28;20025;-82
2023/04/28 04:47:53;;;;;;;5.15;3.20;;;11.00;90.90;;;;;;10368977;28;20064;-82
2023/04/28 04:52:56;;;;;;;5.63;2.92;;;11.00;90.80;;;;;;10373975;28;20477;-82
2023/04/28 04:57:56;;;;;;;5.63;3.15;;;11.00;90.90;;;;;;10355997;28;20118;-82
2023/04/28 05:02:57;;;;;;;6.20;3.38;;;11.10;90.90;;;;;;10371448;28;20121;-82
2023/04/28 05:07:58;;;;;;;5.53;3.03;;;11.00;90.90;;;;;;10373080;28;20116;-82
2023/04/28 05:12:58;;;;;;;5.85;3.15;;;11.00;90.90;;;;;;10361407;28;20033;-82
2023/04/28 05:17:59;;;;;;;5.32;3.13;;;11.00;90.90;;;;;;10367031;28;20060;-82
2023/04/28 05:22:59;;;;;;;6.65;3.00;;;11.00;90.90;;;;;;10371883;28;20049;-82
2023/04/28 05:28:06;;;;;;;6.05;3.35;;;11.00;90.90;;;;;;10374587;28;20044;-82
2023/04/28 05:33:06;;;;;;;4.30;3.00;;;11.00;90.90;;;;;;10373426;28;20026;-82
2023/04/28 05:38:07;;;;;;;6.05;3.15;;;11.20;90.90;;;;;;10372579;28;20037;-82
2023/04/28 05:43:07;;;;;;;7.43;3.72;;;11.00;90.90;;;;;;10385417;28;20022;-82
2023/04/28 05:48:08;;;;;;;5.68;3.47;;;11.00;90.90;;;;;;10373578;28;20085;-82
2023/04/28 05:53:09;;;;;;;4.38;2.60;;;11.00;90.90;;;;;;10377881;28;20089;-81
2023/04/28 05:58:10;;;;;;;6.90;3.28;;;11.00;90.90;;;;;;10368234;28;20105;-82
2023/04/28 06:03:13;;;;;;;6.07;3.10;;;11.00;90.80;;;;;;10354458;28;20068;-82
2023/04/28 06:08:14;;;;;;;5.97;3.30;;;11.00;90.80;;;;;;10361422;28;20022;-82
2023/04/28 06:13:15;;;;;;;5.88;3.03;;;11.00;90.80;;;;;;10367479;28;20112;-82
2023/04/28 06:18:15;;;;;;;5.18;3.25;;;11.70;91.00;;;;;;10368516;28;20017;-82
2023/04/28 06:23:16;;;;;;;5.65;3.38;;;11.00;90.80;;;;;;10366493;28;20059;-83
2023/04/28 06:28:16;;;;;;;4.95;3.20;;;11.50;91.00;;;;;;10360254;28;20026;-82
2023/04/28 06:33:17;;;;;;;5.35;3.30;;;11.00;90.80;;;;;;10364320;28;20109;-81
2023/04/28 06:38:18;;;;;;;5.80;2.80;;;11.10;90.90;;;;;;10374612;28;20041;-81
2023/04/28 06:43:19;;;;;;;4.55;2.72;;;11.10;90.80;;;;;;10363613;28;20397;-81
2023/04/28 06:48:19;;;;;;;5.78;3.13;;;11.10;90.80;;;;;;10372317;28;20044;-81
2023/04/28 06:53:20;;;;;;;5.32;2.92;;;11.10;90.80;;;;;;10368149;28;20321;-81
2023/04/28 06:58:21;;;;;;;5.88;3.13;;;11.10;90.80;;;;;;10364941;28;20525;-83
2023/04/28 07:03:21;;;;;;;5.20;3.15;;;11.20;90.90;;;;;;10372707;28;20026;-82
2023/04/28 07:08:22;;;;;;;4.30;3.22;;;11.20;90.90;;;;;;10382120;28;20117;-82
2023/04/28 07:13:23;;;;;;;5.22;3.33;;;11.20;90.90;;;;;;10373228;28;20293;-82
2023/04/28 07:18:23;;;;;;;4.25;2.80;;;11.20;90.80;;;;;;10365912;28;20704;-82
2023/04/28 07:23:24;;;;;;;4.82;2.78;;;11.80;91.00;;;;;;10369187;28;20064;-82
2023/04/28 07:28:25;;;;;;;5.90;3.58;;;11.30;90.80;;;;;;10364674;28;20045;-83
2023/04/28 07:33:27;;;;;;;6.43;2.83;;;11.30;90.80;;;;;;10375504;28;20029;-82
2023/04/28 07:38:28;;;;;;;3.92;2.67;;;11.30;90.90;;;;;;10371507;28;20036;-82
2023/04/28 07:43:29;;;;;;;5.05;3.05;;;11.30;90.90;;;;;;10362272;28;20025;-83
2023/04/28 07:48:31;;;;;;;4.40;2.67;;;11.30;90.90;;;;;;10368879;28;20022;-85
2023/04/28 07:53:32;;;;;;;4.07;2.78;;;11.40;90.90;;;;;;10369216;28;20509;-82
2023/04/28 07:58:32;;;;;;;5.43;2.85;;;11.40;90.80;;;;;;10364333;28;20033;-83
2023/04/28 08:03:33;;;;;;;3.42;2.80;;;11.40;90.80;;;;;;10360353;28;20047;-84
2023/04/28 08:08:34;;;;;;;5.43;2.90;;;11.50;90.80;;;;;;10359357;28;20445;-83
2023/04/28 08:13:34;;;;;;;3.53;2.60;;;11.50;90.80;;;;;;10366685;28;20044;-83
2023/04/28 08:18:35;;;;;;;5.00;2.63;;;11.50;90.70;;;;;;10360732;28;20048;-84
2023/04/28 08:23:35;;;;;;;3.45;2.42;;;11.50;90.70;;;;;;10359664;28;20033;-82
2023/04/28 08:28:36;;;;;;;5.32;2.67;;;12.30;90.90;;;;;;10363372;28;20402;-83
2023/04/28 08:33:37;;;;;;;6.28;2.65;;;12.30;90.80;;;;;;10367264;28;20120;-84
2023/04/28 08:38:38;;;;;;;6.57;2.70;;;11.70;90.70;;;;;;10366976;28;20022;-84
2023/04/28 08:43:41;;;;;;;5.75;2.83;;;11.70;90.60;;;;;;10359293;28;20144;-85
2023/04/28 08:48:47;;;;;;;5.78;2.80;;;11.80;90.60;;;;;;10362046;28;20080;-83
2023/04/28 08:53:52;;;;;;;5.28;3.10;;;11.80;90.60;;;;;;10363457;28;20100;-83
2023/04/28 08:58:54;;;;;;;3.90;2.78;;;12.70;90.90;;;;;;10375178;28;20022;-84
2023/04/28 09:03:55;;;;;;;4.22;2.55;;;11.80;90.60;;;;;;10367053;28;20018;-83
2023/04/28 09:08:56;;;;;;;4.55;2.65;;;12.30;90.70;;;;;;10370604;28;20024;-84
2023/04/28 09:14:11;;;;;;;7.28;3.05;;;11.80;90.70;;;;;;10359066;28;20037;-84
2023/04/28 09:19:12;;;;;;;4.45;2.65;;;12.10;90.80;;;;;;10367329;28;20494;-84
2023/04/28 09:24:24;;;;;;;4.60;3.00;;;11.90;90.70;;;;;;10368006;28;20093;-84
2023/04/28 09:29:25;;;;;;;4.63;3.03;;;11.90;90.70;;;;;;10366861;28;20081;-83
2023/04/28 09:35:00;;;;;;;3.83;2.53;;;12.00;90.70;;;;;;10368718;28;20088;-83
2023/04/28 09:40:22;;;;;;;3.90;2.70;;;12.10;90.70;;;;;;10360157;28;20177;-83
2023/04/28 09:45:23;;;;;;;4.28;3.30;;;12.10;90.70;;;;;;10370016;28;20487;-83
2023/04/28 09:50:39;;;;;;;5.03;3.40;;;13.20;90.90;;;;;;10366551;28;20018;-84
2023/04/28 09:55:43;;;;;;;5.65;3.63;;;12.30;90.70;;;;;;10367683;28;20156;-82
2023/04/28 10:00:48;;;;;;;7.88;4.28;;;12.30;90.60;;;;;;10352057;28;20022;-85
2023/04/28 10:05:52;;;;;;;5.45;3.78;;;12.90;90.80;;;;;;10362958;28;20109;-84
2023/04/28 10:10:53;;;;;;;7.78;4.10;;;12.80;90.80;;;;;;10374119;28;20105;-84
2023/04/28 10:15:54;;;;;;;7.40;4.40;;;12.50;90.80;;;;;;10372489;28;20509;-84
2023/04/28 10:20:58;;;;;;;5.70;3.60;;;12.50;90.80;;;;;;10369731;28;20160;-84
2023/04/28 10:25:59;;;;;;;9.77;4.25;;;12.60;90.90;;;;;;10369300;28;20101;-83
2023/04/28 10:31:20;;;;;;;10.95;4.03;;;12.50;91.00;;;;;;10364656;28;20018;-84
2023/04/28 10:36:58;;;;;;;8.60;5.32;;;12.60;91.40;;;;;;10359351;28;20054;-79
2023/04/28 10:41:58;;;;;;;8.52;6.05;;;12.70;93.70;;;;;;10360494;28;20038;-79
2023/04/28 10:47:03;;;;;;;8.52;6.03;;;12.90;93.90;;;;;;10360663;28;20034;-83
2023/04/28 10:52:36;;;;;;;11.38;6.18;;;13.10;94.80;;;;;;10359793;28;20034;-82
2023/04/28 10:57:37;;;;;;;11.52;6.20;;;13.20;96.80;;;;;;10370730;28;20019;-82
2023/04/28 11:02:39;;;;;;;9.95;6.68;;;14.20;95.30;;;;;;10355858;28;20021;-82
2023/04/28 11:07:40;;;;;;;14.02;7.53;;;13.40;95.40;;;;;;10361509;28;20033;-82
2023/04/28 11:13:18;;;;;;;13.20;7.57;;;13.40;95.50;;;;;;10357470;28;20025;-85
2023/04/28 11:18:20;;;;;;;13.60;8.13;;;13.40;97.10;;;;;;10364030;28;20017;-84
2023/04/28 11:23:23;;;;;;;12.20;7.90;;;13.30;96.60;;;;;;10350790;28;20458;-85
2023/04/28 11:28:23;;;;;;;15.23;8.32;;;13.20;96.40;;;;;;10349572;28;20336;-85
2023/04/28 11:33:24;;;;;;;14.95;7.85;;;13.20;96.40;;;;;;10361462;28;20101;-85
2023/04/28 11:38:24;;;;;;;14.15;7.60;;;13.10;96.30;;;;;;10358161;28;20130;-84
2023/04/28 11:43:29;;;;;;;16.85;9.10;;;13.70;96.50;;;;;;10359850;28;20366;-84
2023/04/28 11:48:29;;;;;;;17.42;9.48;;;13.50;96.60;;;;;;10361122;28;20025;-84
2023/04/28 11:53:43;;;;;;;17.67;8.98;;;13.10;96.40;;;;;;10365256;28;20030;-84
2023/04/28 11:58:44;;;;;;;19.13;9.18;;;13.40;96.70;;;;;;10357019;28;20128;-84
2023/04/28 12:03:46;;;;;;;16.73;9.38;;;13.10;96.40;;;;;;10365643;28;20473;-84
2023/04/28 12:08:47;;;;;;;18.23;9.65;;;13.10;96.40;;;;;;10363982;28;20029;-84
2023/04/28 12:14:07;;;;;;;16.08;9.30;;;13.00;96.50;;;;;;10375874;28;20025;-84
2023/04/28 12:19:09;;;;;;;17.15;9.45;;;13.00;96.80;;;;;;10360047;28;20037;-84
2023/04/28 12:24:13;;;;;;;14.75;9.77;;;13.40;96.60;;;;;;10368462;28;20038;-84
2023/04/28 12:29:38;;;;;;;16.65;9.82;;;13.00;96.60;;;;;;10362812;28;20046;-84
2023/04/28 12:34:40;;;;;;;15.80;9.65;;;13.00;96.90;;;;;;10356781;28;20101;-84
2023/04/28 12:39:41;;;;;;;14.38;10.10;;;13.00;96.60;;;;;;10353224;28;20022;-84
2023/04/28 12:44:41;;;;;;;16.92;9.88;;;13.10;96.60;;;;;;10370862;28;20231;-84
2023/04/28 12:49:51;;;;;;;17.53;10.57;;;13.00;96.50;;;;;;10354133;28;20028;-83
2023/04/28 12:54:52;;;;;;;19.13;10.32;;;13.70;96.70;;;;;;10364224;28;20297;-84
2023/04/28 12:59:54;;;;;;;15.57;10.75;;;14.00;96.80;;;;;;10356027;28;20029;-84
2023/04/28 13:04:55;;;;;;;17.08;11.20;;;13.00;96.60;;;;;;10358092;28;20064;-85
2023/04/28 13:09:56;;;;;;;21.95;11.57;;;13.00;96.60;;;;;;10364722;28;20544;-82
2023/04/28 13:14:56;;;;;;;19.80;12.00;;;13.10;97.20;;;;;;10358992;28;20040;-86
2023/04/28 13:19:57;;;;;;;17.50;11.63;;;13.30;97.30;;;;;;10357391;28;20030;-83
2023/04/28 13:24:57;;;;;;;21.13;12.85;;;13.60;97.40;;;;;;10357319;28;20442;-84
2023/04/28 13:29:58;;;;;;;20.35;12.43;;;13.10;97.40;;;;;;10349419;28;20037;-81
2023/04/28 13:34:59;;;;;;;19.55;12.10;;;14.00;97.60;;;;;;10359116;28;20152;-82
2023/04/28 13:40:02;;;;;;;19.05;11.90;;;13.10;97.40;;;;;;10363207;28;20028;-79
2023/04/28 13:45:03;;;;;;;21.25;11.50;;;13.10;97.40;;;;;;10367523;28;20393;-80
2023/04/28 13:50:04;;;;;;;23.52;12.95;;;13.10;97.70;;;;;;10364806;28;20022;-81
2023/04/28 13:55:05;;;;;;;21.42;12.18;;;13.10;97.70;;;;;;10363754;28;20026;-82
2023/04/28 14:00:07;;;;;;;19.25;12.00;;;13.10;97.80;;;;;;10352747;28;20474;-81
2023/04/28 14:05:07;;;;;;;24.58;12.15;;;13.10;97.90;;;;;;10359016;28;20022;-82
2023/04/28 14:10:09;;;;;;;19.63;11.50;;;13.10;97.90;;;;;;10360264;28;20030;-81
2023/04/28 14:15:10;;;;;;;22.85;11.20;;;13.10;97.90;;;;;;10354278;28;20056;-82
2023/04/28 14:20:11;;;;;;;17.42;10.50;;;13.10;98.00;;;;;;10359125;28;20018;-82
2023/04/28 14:25:11;;;;;;;16.73;10.63;;;13.10;98.00;;;;;;10362994;28;20088;-81
2023/04/28 14:30:13;;;;;;;15.55;10.15;;;13.30;98.10;;;;;;10355225;28;20033;-81
2023/04/28 14:35:14;;;;;;;20.02;10.00;;;13.60;98.20;;;;;;10359390;28;20555;-82
2023/04/28 14:40:14;;;;;;;14.90;9.93;;;13.10;98.10;;;;;;10349573;28;20120;-82
2023/04/28 14:45:15;;;;;;;14.45;9.90;;;13.10;98.00;;;;;;10352762;28;20028;-83
2023/04/28 14:50:17;;;;;;;14.75;9.50;;;13.10;98.00;;;;;;10358060;28;20515;-81
2023/04/28 14:55:18;;;;;;;13.82;9.18;;;13.10;98.00;;;;;;10360761;28;20037;-81
2023/04/28 15:00:18;;;;;;;15.20;8.57;;;13.10;98.10;;;;;;10371303;28;20101;-80
2023/04/28 15:05:19;;;;;;;12.90;7.50;;;13.10;98.40;;;;;;10370233;28;20427;-80
2023/04/28 15:10:20;;;;;;;13.95;7.50;;;13.20;98.50;;;;;;10351688;28;20039;-80
2023/04/28 15:15:20;;;;;;;12.45;7.65;;;13.20;98.40;;;;;;10362345;28;20026;-79
2023/04/28 15:20:21;;;;;;;10.80;7.30;;;13.40;98.40;;;;;;10363679;28;20102;-80
2023/04/28 15:25:22;;;;;;;11.27;7.60;;;13.20;98.30;;;;;;10365329;28;20033;-79
2023/04/28 15:30:22;;;;;;;10.07;6.65;;;13.20;98.30;;;;;;10354889;28;20022;-80
2023/04/28 15:35:23;;;;;;;10.75;7.10;;;13.50;98.30;;;;;;10367521;28;20090;-82
2023/04/28 15:40:24;;;;;;;12.55;6.63;;;13.20;98.90;;;;;;10374339;28;20105;-80
2023/04/28 15:45:25;;;;;;;10.60;6.45;;;13.30;99.10;;;;;;10366668;28;20469;-80
2023/04/28 15:50:27;;;;;;;9.90;6.38;;;13.60;99.10;;;;;;10365495;28;20053;-81
2023/04/28 15:55:29;;;;;;;12.57;6.63;;;13.20;99.00;;;;;;10367343;28;20022;-80
2023/04/28 16:00:31;;;;;;;8.85;5.65;;;13.20;99.00;;;;;;10375736;28;20470;-78
2023/04/28 16:05:31;;;;;;;11.07;6.15;;;13.20;98.90;;;;;;10356675;28;20437;-78
2023/04/28 16:10:32;;;;;;;11.88;6.65;;;13.20;98.90;;;;;;10357180;28;20084;-79
2023/04/28 16:15:33;;;;;;;10.98;6.05;;;13.20;98.90;;;;;;10356596;28;20030;-77
2023/04/28 16:20:34;;;;;;;8.77;5.35;;;13.10;98.80;;;;;;10355336;28;20024;-80
2023/04/28 16:25:35;;;;;;;9.15;5.47;;;13.20;98.90;;;;;;10352804;28;20082;-78
2023/04/28 16:30:35;;;;;;;10.75;5.97;;;13.20;98.80;;;;;;10360336;28;20026;-80
2023/04/28 16:35:36;;;;;;;11.27;6.07;;;13.30;98.80;;;;;;10362302;28;20492;-79
2023/04/28 16:40:36;;;;;;;11.10;5.90;;;13.20;98.70;;;;;;10365662;28;20018;-78
2023/04/28 16:45:37;;;;;;;9.32;5.28;;;13.20;98.70;;;;;;10367013;28;20094;-77
2023/04/28 16:50:40;;;;;;;14.00;6.18;;;13.10;98.70;;;;;;10369423;28;20022;-78
2023/04/28 16:55:41;;;;;;;12.48;6.35;;;13.20;98.70;;;;;;10365176;28;20398;-80
2023/04/28 17:00:42;;;;;;;10.82;6.30;;;13.10;98.60;;;;;;10357785;28;20080;-80
2023/04/28 17:05:42;;;;;;;12.77;6.80;;;13.20;98.60;;;;;;10361931;28;20033;-79
2023/04/28 17:10:43;;;;;;;9.73;5.47;;;13.50;98.60;;;;;;10356647;28;20386;-79
2023/04/28 17:15:44;;;;;;;12.70;6.13;;;13.20;98.60;;;;;;10374057;28;20130;-80
2023/04/28 17:20:44;;;;;;;11.70;5.82;;;13.20;98.70;;;;;;10373141;28;20022;-83
2023/04/28 17:25:45;;;;;;;13.13;6.18;;;13.70;99.10;;;;;;10370517;28;20460;-81
2023/04/28 17:30:46;;;;;;;18.48;6.70;;;13.10;98.80;;;;;;10368957;28;20032;-83
2023/04/28 17:35:46;;;;;;;15.80;7.32;;;13.20;98.90;;;;;;10359538;28;20029;-83
2023/04/28 17:40:47;;;;;;;13.40;6.93;;;13.10;99.00;;;;;;10362212;28;20429;-85
2023/04/28 17:45:48;;;;;;;12.13;6.30;;;13.60;99.20;;;;;;10362886;28;20021;-86
2023/04/28 17:50:48;;;;;;;15.07;6.75;;;13.70;99.20;;;;;;10363474;28;20433;-85
2023/04/28 17:55:49;;;;;;;12.07;5.80;;;13.10;99.10;;;;;;10361436;28;20136;-84
2023/04/28 18:00:58;;;;;;;13.85;5.97;;;13.70;99.30;;;;;;10342433;28;20056;-85
2023/04/28 18:06:00;;;;;;;12.25;6.38;;;13.70;99.40;;;;;;10363550;28;20042;-84
2023/04/28 18:11:01;;;;;;;11.45;5.95;;;13.10;99.10;;;;;;10355478;28;20022;-85
2023/04/28 18:16:03;;;;;;;12.23;6.45;;;13.20;99.10;;;;;;10351180;28;20049;-85
2023/04/28 18:21:04;;;;;;;14.88;6.35;;;13.10;99.10;;;;;;10357528;28;20026;-84
2023/04/28 18:26:04;;;;;;;11.90;6.47;;;13.00;99.10;;;;;;10361537;28;20693;-85
2023/04/28 18:31:05;;;;;;;12.43;6.57;;;13.00;99.10;;;;;;10364354;28;20029;-82
2023/04/28 18:36:06;;;;;;;12.10;6.72;;;13.10;99.10;;;;;;10350636;28;20050;-84
2023/04/28 18:41:13;;;;;;;12.32;6.47;;;13.80;99.30;;;;;;10349845;28;20026;-84
2023/04/28 18:46:13;;;;;;;11.43;6.47;;;13.00;99.10;;;;;;10350117;28;20030;-84
2023/04/28 18:51:14;;;;;;;12.57;6.18;;;13.00;99.10;;;;;;10361884;28;20466;-84
2023/04/28 18:56:14;;;;;;;14.00;7.97;;;13.50;99.20;;;;;;10355454;28;20037;-83
2023/04/28 19:01:16;;;;;;;14.35;7.13;;;13.00;99.00;;;;;;10355064;28;20022;-84
2023/04/28 19:06:21;;;;;;;12.40;6.38;;;13.20;99.10;;;;;;10361691;28;20065;-84
2023/04/28 19:11:23;;;;;;;12.27;6.32;;;13.00;99.10;;;;;;10354853;28;20392;-81
2023/04/28 19:16:23;;;;;;;16.05;8.10;;;12.90;99.00;;;;;;10360235;28;20508;-82
2023/04/28 19:21:24;;;;;;;13.07;6.18;;;13.20;99.10;;;;;;10362810;28;20030;-83
2023/04/28 19:26:24;;;;;;;13.57;6.80;;;13.00;99.00;;;;;;10358739;28;20497;-83
2023/04/28 19:31:25;;;;;;;13.00;6.95;;;13.00;99.00;;;;;;10354499;28;20029;-85
2023/04/28 19:36:27;;;;;;;14.45;7.13;;;12.90;99.00;;;;;;10351316;28;20029;-86
2023/04/28 19:41:27;;;;;;;12.25;6.82;;;12.90;99.00;;;;;;10361512;28;20030;-85
2023/04/28 19:46:28;;;;;;;15.32;7.28;;;12.90;99.00;;;;;;10355596;28;20517;-85
2023/04/28 19:51:29;;;;;;;19.02;8.38;;;12.90;99.00;;;;;;10357544;28;20513;-84
2023/04/28 19:56:31;;;;;;;12.38;6.80;;;12.90;99.00;;;;;;10355585;28;20513;-86
2023/04/28 20:01:32;;;;;;;14.90;7.50;;;13.40;99.10;;;;;;10375039;28;20469;-85
2023/04/28 20:06:33;;;;;;;14.27;6.60;;;12.90;99.00;;;;;;10361612;28;20034;-84
2023/04/28 20:11:33;;;;;;;15.30;7.32;;;12.90;98.90;;;;;;10359802;28;20042;-85
2023/04/28 20:16:35;;;;;;;13.50;7.32;;;12.90;99.00;;;;;;10349384;28;20026;-85
2023/04/28 20:21:38;;;;;;;14.65;7.57;;;12.80;98.90;;;;;;10349702;28;20026;-86
2023/04/28 20:26:38;;;;;;;16.23;7.75;;;12.80;98.90;;;;;;10350981;28;20022;-86
2023/04/28 20:31:39;;;;;;;17.00;8.20;;;12.80;98.90;;;;;;10351119;28;20034;-86
2023/04/28 20:36:40;;;;;;;15.93;7.63;;;12.90;98.90;;;;;;10354542;28;20041;-86
2023/04/28 20:41:40;;;;;;;15.20;7.57;;;12.80;98.90;;;;;;10355944;28;20018;-86
2023/04/28 20:46:43;;;;;;;12.70;7.25;;;12.80;98.90;;;;;;10356854;28;20047;-86
2023/04/28 20:51:44;;;;;;;14.52;7.40;;;12.80;98.90;;;;;;10354073;28;20033;-87
2023/04/28 20:56:44;;;;;;;13.30;6.80;;;12.80;98.80;;;;;;10354259;28;20022;-87
2023/04/28 21:01:45;;;;;;;13.50;7.30;;;12.80;98.80;;;;;;10358552;28;20022;-86
2023/04/28 21:06:50;;;;;;;14.00;6.97;;;13.10;98.90;;;;;;10346969;28;20573;-87
2023/04/28 21:11:51;;;;;;;13.13;7.22;;;13.20;98.90;;;;;;10345462;28;20089;-86
2023/04/28 21:16:52;;;;;;;13.50;6.75;;;12.70;98.70;;;;;;10347212;28;20026;-87
2023/04/28 21:21:53;;;;;;;13.55;6.75;;;12.70;99.00;;;;;;10344419;28;20014;-87
2023/04/28 21:26:53;;;;;;;12.15;6.22;;;12.70;98.70;;;;;;10348244;28;20043;-87
2023/04/28 21:31:54;;;;;;;12.68;6.57;;;12.70;98.70;;;;;;10352243;28;20057;-86
2023/04/28 21:36:54;;;;;;;12.30;6.50;;;12.70;98.70;;;;;;10351626;28;20030;-86
2023/04/28 21:41:55;;;;;;;12.60;6.43;;;12.70;98.70;;;;;;10365801;28;20386;-87
2023/04/28 21:46:56;;;;;;;12.52;7.00;;;12.70;98.60;;;;;;10360683;28;20039;-86
2023/04/28 21:51:56;;;;;;;13.27;6.80;;;12.70;98.60;;;;;;10360126;28;20026;-86
2023/04/28 21:56:57;;;;;;;13.07;6.93;;;12.70;98.60;;;;;;10361191;28;20515;-86
2023/04/28 22:02:00;;;;;;;13.60;6.95;;;12.70;98.60;;;;;;10367348;28;20171;-87
2023/04/28 22:07:01;;;;;;;12.60;6.70;;;13.20;98.80;;;;;;10364011;28;20029;-87
2023/04/28 22:12:01;;;;;;;11.65;6.57;;;12.70;98.60;;;;;;10358410;28;20409;-87
2023/04/28 22:17:02;;;;;;;11.05;6.53;;;12.60;98.60;;;;;;10359212;28;20141;-86
2023/04/28 22:22:03;;;;;;;14.45;6.63;;;12.60;98.60;;;;;;10359472;28;20393;-86
2023/04/28 22:27:03;;;;;;;11.98;6.53;;;12.60;98.60;;;;;;10351825;28;20030;-87
2023/04/28 22:32:08;;;;;;;10.43;5.93;;;12.60;98.50;;;;;;10349974;28;20096;-86
2023/04/28 22:37:09;;;;;;;11.25;6.32;;;12.60;98.50;;;;;;10357034;28;20528;-86
2023/04/28 22:42:10;;;;;;;12.02;6.50;;;13.40;98.70;;;;;;10362795;28;20022;-86
2023/04/28 22:47:10;;;;;;;12.77;7.00;;;12.60;98.50;;;;;;10361773;28;20559;-86
2023/04/28 22:52:11;;;;;;;12.30;6.78;;;12.60;98.50;;;;;;10360195;28;20034;-86
2023/04/28 22:57:12;;;;;;;14.32;7.40;;;12.60;98.50;;;;;;10354563;28;20034;-87
2023/04/28 23:02:12;;;;;;;12.65;7.00;;;12.50;98.50;;;;;;10347710;28;20124;-87
2023/04/28 23:07:13;;;;;;;13.57;7.13;;;12.60;98.40;;;;;;10366145;28;20030;-87
2023/04/28 23:12:14;;;;;;;12.68;7.15;;;12.50;98.40;;;;;;10361108;28;20041;-86
2023/04/28 23:17:15;;;;;;;14.20;7.65;;;13.40;98.60;;;;;;10364746;28;20026;-86
2023/04/28 23:22:15;;;;;;;12.25;6.47;;;12.50;98.40;;;;;;10360919;28;20097;-87
2023/04/28 23:27:16;;;;;;;13.00;6.65;;;12.60;98.40;;;;;;10366420;28;20120;-87
2023/04/28 23:32:17;;;;;;;13.10;6.60;;;12.50;98.40;;;;;;10371449;28;20026;-86
2023/04/28 23:37:18;;;;;;;14.02;7.55;;;12.50;98.40;;;;;;10339590;28;20045;-87
2023/04/28 23:42:18;;;;;;;12.82;7.20;;;12.50;98.40;;;;;;10370138;28;20108;-87
2023/04/28 23:47:19;;;;;;;14.70;7.55;;;12.50;98.40;;;;;;10364507;28;20030;-87
2023/04/28 23:52:19;;;;;;;16.02;8.60;;;12.50;98.40;;;;;;10369063;28;20081;-87
2023/04/28 23:57:20;;;;;;;16.10;7.63;;;12.50;98.30;;;;;;10362361;28;20030;-86
